sensor_id;sensor_type;location;lat;lon;timestamp;pressure;altitude;pressure_sealevel;temperature;humidity
33155;BME280;19511;42.682;23.332;2023-03-16T00:02:17;94292.41;;;2.78;100.00
33155;BME280;19511;42.682;23.332;2023-03-16T00:04:43;94312.72;;;2.77;100.00
33155;BME280;19511;42.682;23.332;2023-03-16T00:07:12;94307.63;;;2.79;100.00
33155;BME280;19511;42.682;23.332;2023-03-16T00:09:43;94323.31;;;2.93;100.00
33155;BME280;19511;42.682;23.332;2023-03-16T00:12:17;94246.53;;;2.35;100.00
33155;BME280;19511;42.682;23.332;2023-03-16T00:14:44;94311.50;;;2.71;100.00
33155;BME280;19511;42.682;23.332;2023-03-16T00:17:15;94323.28;;;2.82;100.00
33155;BME280;19511;42.682;23.332;2023-03-16T00:19:48;94334.94;;;2.79;100.00
33155;BME280;19511;42.682;23.332;2023-03-16T00:22:26;94211.88;;;1.87;100.00
33155;BME280;19511;42.682;23.332;2023-03-16T00:24:56;94333.38;;;2.74;100.00
33155;BME280;19511;42.682;23.332;2023-03-16T00:27:25;94316.41;;;2.51;100.00
33155;BME280;19511;42.682;23.332;2023-03-16T00:29:52;94317.19;;;2.51;100.00
33155;BME280;19511;42.682;23.332;2023-03-16T00:32:26;94334.81;;;2.61;100.00
33155;BME280;19511;42.682;23.332;2023-03-16T00:34:53;94337.22;;;2.70;100.00
33155;BME280;19511;42.682;23.332;2023-03-16T00:37:20;94336.47;;;2.69;100.00
33155;BME280;19511;42.682;23.332;2023-03-16T00:39:48;94332.13;;;2.65;100.00
33155;BME280;19511;42.682;23.332;2023-03-16T00:42:15;94246.69;;;2.05;100.00
33155;BME280;19511;42.682;23.332;2023-03-16T00:44:45;94315.22;;;2.48;100.00
33155;BME280;19511;42.682;23.332;2023-03-16T00:47:11;94343.44;;;2.63;100.00
33155;BME280;19511;42.682;23.332;2023-03-16T00:49:43;94279.97;;;2.25;100.00
33155;BME280;19511;42.682;23.332;2023-03-16T00:52:11;94347.72;;;2.68;100.00
33155;BME280;19511;42.682;23.332;2023-03-16T00:54:40;94344.91;;;2.53;100.00
33155;BME280;19511;42.682;23.332;2023-03-16T00:57:07;94338.69;;;2.56;100.00
33155;BME280;19511;42.682;23.332;2023-03-16T00:59:33;94329.19;;;2.39;100.00
33155;BME280;19511;42.682;23.332;2023-03-16T01:02:03;94352.25;;;2.45;100.00
33155;BME280;19511;42.682;23.332;2023-03-16T01:04:32;94357.34;;;2.47;100.00
33155;BME280;19511;42.682;23.332;2023-03-16T01:06:58;94364.75;;;2.47;100.00
33155;BME280;19511;42.682;23.332;2023-03-16T01:09:28;94346.31;;;2.33;100.00
33155;BME280;19511;42.682;23.332;2023-03-16T01:12:04;94266.78;;;1.86;100.00
33155;BME280;19511;42.682;23.332;2023-03-16T01:14:31;94373.63;;;2.40;100.00
33155;BME280;19511;42.682;23.332;2023-03-16T01:16:57;94262.38;;;1.70;100.00
33155;BME280;19511;42.682;23.332;2023-03-16T01:19:22;94340.69;;;2.18;100.00
33155;BME280;19511;42.682;23.332;2023-03-16T01:21:50;94256.03;;;1.62;100.00
33155;BME280;19511;42.682;23.332;2023-03-16T01:24:20;94350.94;;;2.28;100.00
33155;BME280;19511;42.682;23.332;2023-03-16T01:26:49;94363.41;;;2.29;100.00
33155;BME280;19511;42.682;23.332;2023-03-16T01:29:21;94369.63;;;2.26;100.00
33155;BME280;19511;42.682;23.332;2023-03-16T01:31:50;94320.59;;;1.92;100.00
33155;BME280;19511;42.682;23.332;2023-03-16T01:34:20;94371.13;;;2.20;100.00
33155;BME280;19511;42.682;23.332;2023-03-16T01:36:46;94310.28;;;1.75;100.00
33155;BME280;19511;42.682;23.332;2023-03-16T01:39:13;94370.69;;;2.15;100.00
33155;BME280;19511;42.682;23.332;2023-03-16T01:41:42;94277.69;;;1.48;100.00
33155;BME280;19511;42.682;23.332;2023-03-16T01:44:13;94376.94;;;2.15;100.00
33155;BME280;19511;42.682;23.332;2023-03-16T01:46:39;94375.78;;;2.16;100.00
33155;BME280;19511;42.682;23.332;2023-03-16T01:54:29;94385.03;;;2.08;100.00
33155;BME280;19511;42.682;23.332;2023-03-16T01:59:27;94386.69;;;2.16;100.00
33155;BME280;19511;42.682;23.332;2023-03-16T02:01:56;94396.72;;;2.05;100.00
33155;BME280;19511;42.682;23.332;2023-03-16T02:07:08;94403.75;;;2.06;100.00
33155;BME280;19511;42.682;23.332;2023-03-16T02:09:39;94403.41;;;2.11;100.00
33155;BME280;19511;42.682;23.332;2023-03-16T02:12:10;94394.72;;;2.02;100.00
33155;BME280;19511;42.682;23.332;2023-03-16T02:14:46;94411.53;;;2.07;100.00
33155;BME280;19511;42.682;23.332;2023-03-16T02:17:18;94406.00;;;2.00;100.00
33155;BME280;19511;42.682;23.332;2023-03-16T02:22:47;94352.53;;;1.54;100.00
33155;BME280;19511;42.682;23.332;2023-03-16T02:25:16;94420.69;;;1.88;100.00
33155;BME280;19511;42.682;23.332;2023-03-16T02:28:26;94334.66;;;1.26;100.00
33155;BME280;19511;42.682;23.332;2023-03-16T02:30:53;94426.03;;;1.81;100.00
33155;BME280;19511;42.682;23.332;2023-03-16T02:33:19;94427.63;;;1.82;100.00
33155;BME280;19511;42.682;23.332;2023-03-16T02:35:46;94419.28;;;1.68;100.00
33155;BME280;19511;42.682;23.332;2023-03-16T02:38:17;94436.03;;;1.70;100.00
33155;BME280;19511;42.682;23.332;2023-03-16T02:40:44;94432.91;;;1.68;100.00
33155;BME280;19511;42.682;23.332;2023-03-16T02:43:14;94431.59;;;1.58;100.00
33155;BME280;19511;42.682;23.332;2023-03-16T02:45:53;94440.88;;;1.53;100.00
33155;BME280;19511;42.682;23.332;2023-03-16T02:48:29;94429.84;;;1.42;100.00
33155;BME280;19511;42.682;23.332;2023-03-16T02:50:56;94429.00;;;1.38;100.00
33155;BME280;19511;42.682;23.332;2023-03-16T02:53:22;94301.81;;;0.55;100.00
33155;BME280;19511;42.682;23.332;2023-03-16T02:55:50;94441.09;;;1.41;100.00
33155;BME280;19511;42.682;23.332;2023-03-16T02:58:16;94423.03;;;1.29;100.00
33155;BME280;19511;42.682;23.332;2023-03-16T03:00:42;94437.19;;;1.38;100.00
33155;BME280;19511;42.682;23.332;2023-03-16T03:03:09;94349.94;;;0.77;100.00
33155;BME280;19511;42.682;23.332;2023-03-16T03:05:36;94446.88;;;1.36;100.00
33155;BME280;19511;42.682;23.332;2023-03-16T03:08:02;94453.56;;;1.42;100.00
33155;BME280;19511;42.682;23.332;2023-03-16T03:10:27;94444.25;;;1.43;100.00
33155;BME280;19511;42.682;23.332;2023-03-16T03:12:55;94395.88;;;1.06;100.00
33155;BME280;19511;42.682;23.332;2023-03-16T03:15:22;94354.69;;;0.80;100.00
33155;BME280;19511;42.682;23.332;2023-03-16T03:17:47;94460.72;;;1.50;100.00
33155;BME280;19511;42.682;23.332;2023-03-16T03:20:13;94454.41;;;1.46;100.00
33155;BME280;19511;42.682;23.332;2023-03-16T03:22:43;94364.16;;;0.90;100.00
33155;BME280;19511;42.682;23.332;2023-03-16T03:25:13;94385.09;;;0.86;100.00
33155;BME280;19511;42.682;23.332;2023-03-16T03:27:42;94361.13;;;0.69;100.00
33155;BME280;19511;42.682;23.332;2023-03-16T03:30:10;94468.28;;;1.34;100.00
33155;BME280;19511;42.682;23.332;2023-03-16T03:32:37;94467.53;;;1.37;100.00
33155;BME280;19511;42.682;23.332;2023-03-16T03:35:03;94470.94;;;1.30;100.00
33155;BME280;19511;42.682;23.332;2023-03-16T03:37:28;94481.84;;;1.30;100.00
33155;BME280;19511;42.682;23.332;2023-03-16T03:39:54;94451.50;;;1.05;100.00
33155;BME280;19511;42.682;23.332;2023-03-16T03:42:19;94475.38;;;1.15;100.00
33155;BME280;19511;42.682;23.332;2023-03-16T03:44:48;94470.75;;;1.16;100.00
33155;BME280;19511;42.682;23.332;2023-03-16T03:47:15;94475.38;;;1.15;100.00
33155;BME280;19511;42.682;23.332;2023-03-16T03:49:40;94473.72;;;1.07;100.00
33155;BME280;19511;42.682;23.332;2023-03-16T03:52:06;94395.44;;;0.50;100.00
33155;BME280;19511;42.682;23.332;2023-03-16T03:54:31;94495.00;;;1.01;100.00
33155;BME280;19511;42.682;23.332;2023-03-16T03:56:57;94416.53;;;0.57;100.00
33155;BME280;19511;42.682;23.332;2023-03-16T03:59:27;94484.19;;;1.05;100.00
33155;BME280;19511;42.682;23.332;2023-03-16T04:01:53;94499.75;;;1.04;100.00
33155;BME280;19511;42.682;23.332;2023-03-16T04:04:23;94502.19;;;1.13;100.00
33155;BME280;19511;42.682;23.332;2023-03-16T04:06:52;94374.88;;;0.29;100.00
33155;BME280;19511;42.682;23.332;2023-03-16T04:09:17;94515.16;;;1.20;100.00
33155;BME280;19511;42.682;23.332;2023-03-16T04:11:43;94404.72;;;0.49;100.00
33155;BME280;19511;42.682;23.332;2023-03-16T04:14:08;94500.53;;;1.05;100.00
33155;BME280;19511;42.682;23.332;2023-03-16T04:16:36;94520.97;;;1.18;100.00
33155;BME280;19511;42.682;23.332;2023-03-16T04:19:02;94510.72;;;1.11;100.00
33155;BME280;19511;42.682;23.332;2023-03-16T04:21:29;94499.97;;;1.19;100.00
33155;BME280;19511;42.682;23.332;2023-03-16T04:23:55;94506.19;;;1.19;100.00
33155;BME280;19511;42.682;23.332;2023-03-16T04:26:21;94505.34;;;1.15;100.00
33155;BME280;19511;42.682;23.332;2023-03-16T04:28:49;94524.91;;;1.21;100.00
33155;BME280;19511;42.682;23.332;2023-03-16T04:31:18;94499.31;;;1.02;100.00
33155;BME280;19511;42.682;23.332;2023-03-16T04:33:44;94524.84;;;1.17;100.00
33155;BME280;19511;42.682;23.332;2023-03-16T04:36:10;94504.50;;;1.11;100.00
33155;BME280;19511;42.682;23.332;2023-03-16T04:38:36;94536.25;;;1.26;100.00
33155;BME280;19511;42.682;23.332;2023-03-16T04:41:03;94513.69;;;1.03;100.00
33155;BME280;19511;42.682;23.332;2023-03-16T04:43:29;94462.59;;;0.69;100.00
33155;BME280;19511;42.682;23.332;2023-03-16T04:46:02;94460.25;;;0.68;100.00
33155;BME280;19511;42.682;23.332;2023-03-16T04:48:29;94540.69;;;1.11;100.00
33155;BME280;19511;42.682;23.332;2023-03-16T04:51:00;94535.19;;;1.08;100.00
33155;BME280;19511;42.682;23.332;2023-03-16T04:53:26;94541.81;;;1.07;100.00
33155;BME280;19511;42.682;23.332;2023-03-16T04:55:52;94550.81;;;1.11;100.00
33155;BME280;19511;42.682;23.332;2023-03-16T04:58:17;94577.44;;;1.21;100.00
33155;BME280;19511;42.682;23.332;2023-03-16T05:00:43;94558.63;;;1.12;100.00
33155;BME280;19511;42.682;23.332;2023-03-16T05:03:09;94567.94;;;1.11;100.00
33155;BME280;19511;42.682;23.332;2023-03-16T05:05:45;94568.66;;;1.08;100.00
33155;BME280;19511;42.682;23.332;2023-03-16T05:08:16;94572.66;;;1.14;100.00
33155;BME280;19511;42.682;23.332;2023-03-16T05:10:42;94583.81;;;1.06;100.00
33155;BME280;19511;42.682;23.332;2023-03-16T05:13:11;94562.63;;;0.95;100.00
33155;BME280;19511;42.682;23.332;2023-03-16T05:15:37;94577.63;;;1.09;100.00
33155;BME280;19511;42.682;23.332;2023-03-16T05:18:02;94581.91;;;1.10;100.00
33155;BME280;19511;42.682;23.332;2023-03-16T05:20:28;94553.34;;;1.00;100.00
33155;BME280;19511;42.682;23.332;2023-03-16T05:22:59;94592.44;;;1.11;100.00
33155;BME280;19511;42.682;23.332;2023-03-16T05:25:24;94577.69;;;1.12;100.00
33155;BME280;19511;42.682;23.332;2023-03-16T05:27:51;94592.56;;;1.19;100.00
33155;BME280;19511;42.682;23.332;2023-03-16T05:30:18;94599.53;;;1.16;100.00
33155;BME280;19511;42.682;23.332;2023-03-16T05:32:44;94604.25;;;1.19;100.00
33155;BME280;19511;42.682;23.332;2023-03-16T05:35:11;94597.81;;;1.08;100.00
33155;BME280;19511;42.682;23.332;2023-03-16T05:37:41;94589.66;;;1.08;100.00
33155;BME280;19511;42.682;23.332;2023-03-16T05:40:09;94497.09;;;0.42;100.00
33155;BME280;19511;42.682;23.332;2023-03-16T05:42:45;94602.69;;;1.18;100.00
33155;BME280;19511;42.682;23.332;2023-03-16T05:45:12;94607.34;;;1.18;100.00
33155;BME280;19511;42.682;23.332;2023-03-16T05:47:39;94490.03;;;0.37;100.00
33155;BME280;19511;42.682;23.332;2023-03-16T05:50:09;94605.53;;;1.02;100.00
33155;BME280;19511;42.682;23.332;2023-03-16T05:52:44;94541.47;;;0.65;100.00
33155;BME280;19511;42.682;23.332;2023-03-16T05:55:11;94610.22;;;1.05;100.00
33155;BME280;19511;42.682;23.332;2023-03-16T05:57:37;94633.81;;;1.17;100.00
33155;BME280;19511;42.682;23.332;2023-03-16T06:00:06;94638.16;;;1.22;100.00
33155;BME280;19511;42.682;23.332;2023-03-16T06:02:46;94634.50;;;1.14;100.00
33155;BME280;19511;42.682;23.332;2023-03-16T06:05:12;94624.06;;;1.16;100.00
33155;BME280;19511;42.682;23.332;2023-03-16T06:07:38;94631.25;;;1.28;100.00
33155;BME280;19511;42.682;23.332;2023-03-16T06:10:05;94602.44;;;1.04;100.00
33155;BME280;19511;42.682;23.332;2023-03-16T06:12:31;94636.16;;;1.19;100.00
33155;BME280;19511;42.682;23.332;2023-03-16T06:14:56;94647.97;;;1.26;100.00
33155;BME280;19511;42.682;23.332;2023-03-16T06:17:22;94585.84;;;0.89;100.00
33155;BME280;19511;42.682;23.332;2023-03-16T06:19:47;94647.97;;;1.26;100.00
33155;BME280;19511;42.682;23.332;2023-03-16T06:22:13;94561.44;;;0.73;100.00
33155;BME280;19511;42.682;23.332;2023-03-16T06:24:38;94648.94;;;1.38;100.00
33155;BME280;19511;42.682;23.332;2023-03-16T06:27:04;94649.53;;;1.27;100.00
33155;BME280;19511;42.682;23.332;2023-03-16T06:29:29;94675.13;;;1.42;100.00
33155;BME280;19511;42.682;23.332;2023-03-16T06:31:55;94659.09;;;1.41;100.00
33155;BME280;19511;42.682;23.332;2023-03-16T06:34:21;94662.63;;;1.41;100.00
33155;BME280;19511;42.682;23.332;2023-03-16T06:36:47;94673.28;;;1.50;100.00
33155;BME280;19511;42.682;23.332;2023-03-16T06:39:12;94570.34;;;0.93;100.00
33155;BME280;19511;42.682;23.332;2023-03-16T06:41:39;94676.44;;;1.52;100.00
33155;BME280;19511;42.682;23.332;2023-03-16T06:44:07;94673.69;;;1.52;100.00
33155;BME280;19511;42.682;23.332;2023-03-16T06:46:32;94660.03;;;1.49;100.00
33155;BME280;19511;42.682;23.332;2023-03-16T06:48:58;94689.75;;;1.57;100.00
33155;BME280;19511;42.682;23.332;2023-03-16T06:51:36;94688.13;;;1.53;100.00
33155;BME280;19511;42.682;23.332;2023-03-16T06:54:05;94694.88;;;1.59;100.00
33155;BME280;19511;42.682;23.332;2023-03-16T06:56:31;94686.69;;;1.59;100.00
33155;BME280;19511;42.682;23.332;2023-03-16T06:58:56;94707.06;;;1.69;100.00
33155;BME280;19511;42.682;23.332;2023-03-16T07:01:22;94716.78;;;1.66;100.00
33155;BME280;19511;42.682;23.332;2023-03-16T07:03:48;94691.25;;;1.55;100.00
33155;BME280;19511;42.682;23.332;2023-03-16T07:06:14;94707.38;;;1.63;100.00
33155;BME280;19511;42.682;23.332;2023-03-16T07:08:40;94702.97;;;1.55;100.00
33155;BME280;19511;42.682;23.332;2023-03-16T07:11:06;94701.31;;;1.51;100.00
33155;BME280;19511;42.682;23.332;2023-03-16T07:13:32;94729.56;;;1.62;100.00
33155;BME280;19511;42.682;23.332;2023-03-16T07:16:01;94712.44;;;1.61;100.00
33155;BME280;19511;42.682;23.332;2023-03-16T07:18:27;94724.31;;;1.73;100.00
33155;BME280;19511;42.682;23.332;2023-03-16T07:20:58;94727.03;;;1.73;100.00
33155;BME280;19511;42.682;23.332;2023-03-16T07:23:24;94643.13;;;1.16;100.00
33155;BME280;19511;42.682;23.332;2023-03-16T07:25:50;94720.16;;;1.59;100.00
33155;BME280;19511;42.682;23.332;2023-03-16T07:28:17;94732.53;;;1.76;100.00
33155;BME280;19511;42.682;23.332;2023-03-16T07:30:46;94725.38;;;1.68;100.00
33155;BME280;19511;42.682;23.332;2023-03-16T07:33:16;94731.31;;;1.74;100.00
33155;BME280;19511;42.682;23.332;2023-03-16T07:35:43;94744.38;;;1.84;100.00
33155;BME280;19511;42.682;23.332;2023-03-16T07:38:09;94691.22;;;1.51;100.00
33155;BME280;19511;42.682;23.332;2023-03-16T07:40:38;94742.78;;;1.83;100.00
33155;BME280;19511;42.682;23.332;2023-03-16T07:43:04;94744.38;;;1.84;100.00
33155;BME280;19511;42.682;23.332;2023-03-16T07:45:33;94724.84;;;1.82;100.00
33155;BME280;19511;42.682;23.332;2023-03-16T07:48:03;94747.31;;;1.99;100.00
33155;BME280;19511;42.682;23.332;2023-03-16T07:50:32;94747.38;;;2.02;100.00
33155;BME280;19511;42.682;23.332;2023-03-16T07:53:01;94748.69;;;2.12;100.00
33155;BME280;19511;42.682;23.332;2023-03-16T07:55:27;94755.91;;;2.24;100.00
33155;BME280;19511;42.682;23.332;2023-03-16T07:57:52;94752.50;;;2.31;100.00
33155;BME280;19511;42.682;23.332;2023-03-16T08:00:18;94694.97;;;1.89;100.00
33155;BME280;19511;42.682;23.332;2023-03-16T08:02:51;94736.63;;;2.13;100.00
33155;BME280;19511;42.682;23.332;2023-03-16T08:05:17;94654.19;;;1.73;100.00
33155;BME280;19511;42.682;23.332;2023-03-16T08:07:43;94736.19;;;2.34;100.00
33155;BME280;19511;42.682;23.332;2023-03-16T08:10:10;94743.09;;;2.28;100.00
33155;BME280;19511;42.682;23.332;2023-03-16T08:12:35;94735.59;;;2.21;100.00
33155;BME280;19511;42.682;23.332;2023-03-16T08:15:01;94754.50;;;2.34;100.00
33155;BME280;19511;42.682;23.332;2023-03-16T08:17:27;94762.31;;;2.35;100.00
33155;BME280;19511;42.682;23.332;2023-03-16T08:19:56;94758.69;;;2.27;100.00
33155;BME280;19511;42.682;23.332;2023-03-16T08:22:21;94770.13;;;2.37;100.00
33155;BME280;19511;42.682;23.332;2023-03-16T08:24:47;94767.34;;;2.33;100.00
33155;BME280;19511;42.682;23.332;2023-03-16T08:27:13;94775.34;;;2.45;100.00
33155;BME280;19511;42.682;23.332;2023-03-16T08:29:40;94696.97;;;1.92;100.00
33155;BME280;19511;42.682;23.332;2023-03-16T08:32:05;94784.63;;;2.41;100.00
33155;BME280;19511;42.682;23.332;2023-03-16T08:34:31;94758.53;;;2.17;100.00
33155;BME280;19511;42.682;23.332;2023-03-16T08:36:59;94777.91;;;2.35;100.00
33155;BME280;19511;42.682;23.332;2023-03-16T08:39:25;94763.97;;;2.17;100.00
33155;BME280;19511;42.682;23.332;2023-03-16T08:41:57;94764.94;;;2.28;100.00
33155;BME280;19511;42.682;23.332;2023-03-16T08:44:28;94781.91;;;2.41;100.00
33155;BME280;19511;42.682;23.332;2023-03-16T08:46:57;94773.72;;;2.41;100.00
33155;BME280;19511;42.682;23.332;2023-03-16T08:49:27;94772.19;;;2.43;100.00
33155;BME280;19511;42.682;23.332;2023-03-16T08:51:55;94793.56;;;2.65;100.00
33155;BME280;19511;42.682;23.332;2023-03-16T08:54:21;94718.09;;;2.22;100.00
33155;BME280;19511;42.682;23.332;2023-03-16T08:56:52;94794.50;;;2.76;100.00
33155;BME280;19511;42.682;23.332;2023-03-16T08:59:20;94789.88;;;2.80;100.00
33155;BME280;19511;42.682;23.332;2023-03-16T09:01:50;94682.81;;;2.10;100.00
33155;BME280;19511;42.682;23.332;2023-03-16T09:04:20;94767.91;;;2.73;100.00
33155;BME280;19511;42.682;23.332;2023-03-16T09:06:47;94773.75;;;2.71;100.00
33155;BME280;19511;42.682;23.332;2023-03-16T09:09:17;94789.34;;;2.98;100.00
33155;BME280;19511;42.682;23.332;2023-03-16T09:11:46;94798.69;;;2.97;100.00
33155;BME280;19511;42.682;23.332;2023-03-16T09:14:18;94788.19;;;2.99;100.00
33155;BME280;19511;42.682;23.332;2023-03-16T09:16:47;94731.19;;;2.67;100.00
33155;BME280;19511;42.682;23.332;2023-03-16T09:19:15;94784.94;;;2.89;100.00
33155;BME280;19511;42.682;23.332;2023-03-16T09:21:55;94810.03;;;2.99;100.00
33155;BME280;19511;42.682;23.332;2023-03-16T09:24:27;94786.94;;;2.92;100.00
33155;BME280;19511;42.682;23.332;2023-03-16T09:26:53;94747.56;;;2.67;100.00
33155;BME280;19511;42.682;23.332;2023-03-16T09:29:20;94816.66;;;2.98;100.00
33155;BME280;19511;42.682;23.332;2023-03-16T09:31:49;94804.47;;;2.91;100.00
33155;BME280;19511;42.682;23.332;2023-03-16T09:34:18;94737.97;;;2.50;100.00
33155;BME280;19511;42.682;23.332;2023-03-16T09:36:47;94747.88;;;2.61;100.00
33155;BME280;19511;42.682;23.332;2023-03-16T09:39:15;94804.97;;;2.97;100.00
33155;BME280;19511;42.682;23.332;2023-03-16T09:42:15;94793.88;;;2.86;100.00
33155;BME280;19511;42.682;23.332;2023-03-16T09:45:02;94801.81;;;2.95;100.00
33155;BME280;19511;42.682;23.332;2023-03-16T09:47:37;94742.59;;;2.45;100.00
33155;BME280;19511;42.682;23.332;2023-03-16T09:50:14;94795.81;;;2.86;100.00
33155;BME280;19511;42.682;23.332;2023-03-16T09:52:57;94729.00;;;2.49;100.00
33155;BME280;19511;42.682;23.332;2023-03-16T09:55:33;94807.97;;;2.92;100.00
33155;BME280;19511;42.682;23.332;2023-03-16T09:58:18;94810.31;;;2.90;100.00
33155;BME280;19511;42.682;23.332;2023-03-16T10:07:20;94812.53;;;2.81;100.00
33155;BME280;19511;42.682;23.332;2023-03-16T10:10:25;94816.94;;;2.89;100.00
33155;BME280;19511;42.682;23.332;2023-03-16T10:12:51;94814.66;;;2.94;100.00
33155;BME280;19511;42.682;23.332;2023-03-16T10:15:22;94726.28;;;2.26;100.00
33155;BME280;19511;42.682;23.332;2023-03-16T10:18:13;94826.13;;;2.77;100.00
33155;BME280;19511;42.682;23.332;2023-03-16T10:20:41;94807.16;;;2.88;100.00
33155;BME280;19511;42.682;23.332;2023-03-16T10:23:20;94811.91;;;2.94;100.00
33155;BME280;19511;42.682;23.332;2023-03-16T10:25:52;94807.00;;;3.04;100.00
33155;BME280;19511;42.682;23.332;2023-03-16T10:28:23;94811.16;;;3.24;100.00
33155;BME280;19511;42.682;23.332;2023-03-16T10:30:52;94822.53;;;3.26;100.00
33155;BME280;19511;42.682;23.332;2023-03-16T10:33:36;94804.25;;;3.04;100.00
33155;BME280;19511;42.682;23.332;2023-03-16T10:44:13;94824.81;;;3.24;100.00
33155;BME280;19511;42.682;23.332;2023-03-16T10:46:45;94821.81;;;3.33;100.00
33155;BME280;19511;42.682;23.332;2023-03-16T10:51:59;94811.66;;;3.34;100.00
33155;BME280;19511;42.682;23.332;2023-03-16T10:54:31;94789.63;;;3.19;100.00
33155;BME280;19511;42.682;23.332;2023-03-16T11:00:21;94814.97;;;2.89;100.00
33155;BME280;19511;42.682;23.332;2023-03-16T11:02:52;94821.09;;;3.09;100.00
33155;BME280;19511;42.682;23.332;2023-03-16T11:05:31;94807.59;;;3.20;100.00
33155;BME280;19511;42.682;23.332;2023-03-16T11:08:00;94818.59;;;3.27;100.00
33155;BME280;19511;42.682;23.332;2023-03-16T11:10:32;94814.38;;;3.34;100.00
33155;BME280;19511;42.682;23.332;2023-03-16T11:13:18;94817.50;;;3.32;100.00
33155;BME280;19511;42.682;23.332;2023-03-16T11:15:46;94824.75;;;3.51;100.00
33155;BME280;19511;42.682;23.332;2023-03-16T11:18:30;94732.41;;;3.00;100.00
33155;BME280;19511;42.682;23.332;2023-03-16T11:23:53;94803.34;;;3.57;100.00
33155;BME280;19511;42.682;23.332;2023-03-16T11:26:34;94816.78;;;3.39;100.00
33155;BME280;19511;42.682;23.332;2023-03-16T11:29:10;94819.13;;;3.37;100.00
33155;BME280;19511;42.682;23.332;2023-03-16T11:34:15;94817.13;;;3.34;100.00
33155;BME280;19511;42.682;23.332;2023-03-16T11:42:40;94780.28;;;3.20;100.00
33155;BME280;19511;42.682;23.332;2023-03-16T11:50:41;94816.13;;;3.46;100.00
33155;BME280;19511;42.682;23.332;2023-03-16T12:07:22;94826.50;;;3.33;100.00
33155;BME280;19511;42.682;23.332;2023-03-16T12:15:38;94841.94;;;3.48;100.00
33155;BME280;19511;42.682;23.332;2023-03-16T12:18:21;94838.06;;;3.53;100.00
33155;BME280;19511;42.682;23.332;2023-03-16T12:21:09;94844.13;;;3.39;100.00
33155;BME280;19511;42.682;23.332;2023-03-16T12:23:53;94838.25;;;3.37;100.00
33155;BME280;19511;42.682;23.332;2023-03-16T12:26:24;94849.25;;;3.40;100.00
33155;BME280;19511;42.682;23.332;2023-03-16T12:28:54;94777.66;;;3.01;100.00
33155;BME280;19511;42.682;23.332;2023-03-16T12:31:44;94850.47;;;3.43;100.00
33155;BME280;19511;42.682;23.332;2023-03-16T12:34:24;94855.94;;;3.43;100.00
33155;BME280;19511;42.682;23.332;2023-03-16T12:39:44;94861.72;;;3.38;100.00
33155;BME280;19511;42.682;23.332;2023-03-16T12:44:53;94856.69;;;3.13;100.00
33155;BME280;19511;42.682;23.332;2023-03-16T12:47:24;94876.97;;;3.12;100.00
33155;BME280;19511;42.682;23.332;2023-03-16T12:49:53;94881.66;;;3.12;100.00
33155;BME280;19511;42.682;23.332;2023-03-16T12:52:21;94858.53;;;3.05;100.00
33155;BME280;19511;42.682;23.332;2023-03-16T12:55:07;94863.13;;;2.98;100.00
33155;BME280;19511;42.682;23.332;2023-03-16T12:57:38;94879.81;;;2.92;100.00
33155;BME280;19511;42.682;23.332;2023-03-16T13:00:10;94879.31;;;2.83;100.00
33155;BME280;19511;42.682;23.332;2023-03-16T13:02:38;94885.91;;;2.82;100.00
33155;BME280;19511;42.682;23.332;2023-03-16T13:05:13;94891.69;;;2.77;100.00
33155;BME280;19511;42.682;23.332;2023-03-16T13:07:50;94898.66;;;2.74;100.00
33155;BME280;19511;42.682;23.332;2023-03-16T13:10:18;94892.06;;;2.52;100.00
33155;BME280;19511;42.682;23.332;2023-03-16T13:12:47;94813.63;;;2.03;100.00
33155;BME280;19511;42.682;23.332;2023-03-16T13:18:02;94799.16;;;1.99;100.00
33155;BME280;19511;42.682;23.332;2023-03-16T13:20:31;94871.34;;;2.51;100.00
33155;BME280;19511;42.682;23.332;2023-03-16T13:23:18;94898.69;;;2.78;100.00
33155;BME280;19511;42.682;23.332;2023-03-16T13:31:49;94806.72;;;2.09;100.00
33155;BME280;19511;42.682;23.332;2023-03-16T13:34:30;94909.63;;;2.78;100.00
33155;BME280;19511;42.682;23.332;2023-03-16T13:36:58;94891.13;;;2.68;100.00
33155;BME280;19511;42.682;23.332;2023-03-16T13:39:29;94905.44;;;2.84;100.00
33155;BME280;19511;42.682;23.332;2023-03-16T13:44:38;94916.84;;;2.90;100.00
33155;BME280;19511;42.682;23.332;2023-03-16T13:47:11;94913.88;;;2.99;100.00
33155;BME280;19511;42.682;23.332;2023-03-16T13:49:47;94906.31;;;2.88;100.00
33155;BME280;19511;42.682;23.332;2023-03-16T13:52:28;94921.31;;;3.02;100.00
33155;BME280;19511;42.682;23.332;2023-03-16T13:54:55;94920.06;;;2.96;100.00
33155;BME280;19511;42.682;23.332;2023-03-16T13:57:25;94907.75;;;2.82;100.00
33155;BME280;19511;42.682;23.332;2023-03-16T13:59:59;94822.63;;;2.26;100.00
33155;BME280;19511;42.682;23.332;2023-03-16T14:02:25;94922.63;;;2.61;100.00
33155;BME280;19511;42.682;23.332;2023-03-16T14:04:50;94924.78;;;2.72;100.00
33155;BME280;19511;42.682;23.332;2023-03-16T14:07:19;94928.34;;;2.76;100.00
33155;BME280;19511;42.682;23.332;2023-03-16T14:09:45;94825.53;;;2.14;100.00
33155;BME280;19511;42.682;23.332;2023-03-16T14:12:17;94916.50;;;2.68;100.00
33155;BME280;19511;42.682;23.332;2023-03-16T14:14:46;94845.16;;;2.23;100.00
33155;BME280;19511;42.682;23.332;2023-03-16T14:17:18;94939.38;;;2.83;100.00
33155;BME280;19511;42.682;23.332;2023-03-16T14:19:50;94922.34;;;2.67;100.00
33155;BME280;19511;42.682;23.332;2023-03-16T14:22:22;94925.13;;;2.47;100.00
33155;BME280;19511;42.682;23.332;2023-03-16T14:24:57;94934.88;;;2.48;100.00
33155;BME280;19511;42.682;23.332;2023-03-16T14:27:28;94849.41;;;1.98;100.00
33155;BME280;19511;42.682;23.332;2023-03-16T14:30:20;94956.97;;;2.63;100.00
33155;BME280;19511;42.682;23.332;2023-03-16T14:33:25;94841.94;;;1.94;100.00